Time;durP1;ratioP1;P1;durP2;ratioP2;P2;SDS_P1;SDS_P2;PMS_P1;PMS_P2;Temp;Humidity;BMP_temperature;BMP_pressure;BME280_temperature;BME280_humidity;BME280_pressure;Samples;Min_cycle;Max_cycle;Signal;HPM_P1;HPM_P2
2021/12/24 00:01:37;;;;;;;9.50;6.42;;;4.90;99.90;;;;;;1871704;76;21043;-76
2021/12/24 00:04:04;;;;;;;12.80;7.85;;;5.10;99.90;;;;;;1862178;76;21079;-77
2021/12/24 00:06:31;;;;;;;10.82;7.65;;;5.00;99.90;;;;;;1872270;75;21565;-77
2021/12/24 00:08:57;;;;;;;12.40;7.53;;;4.80;99.90;;;;;;1861460;76;21491;-75
2021/12/24 00:11:23;;;;;;;16.40;9.08;;;4.90;99.90;;;;;;1892832;75;21462;-76
2021/12/24 00:13:51;;;;;;;14.58;8.00;;;5.00;99.90;;;;;;1890068;74;21442;-75
2021/12/24 00:16:27;;;;;;;12.68;8.30;;;5.10;99.90;;;;;;1911696;75;21148;-75
2021/12/24 00:19:01;;;;;;;13.80;7.83;;;5.10;99.90;;;;;;1889838;73;21096;-76
2021/12/24 00:22:12;;;;;;;18.55;8.35;;;5.20;99.90;;;;;;1873737;75;21152;-77
2021/12/24 00:37:19;;;;;;;9.03;5.35;;;5.10;99.90;;;;;;1871188;75;21579;-74
2021/12/24 00:39:55;;;;;;;10.80;6.42;;;5.30;99.90;;;;;;1880330;74;21278;-74
2021/12/24 00:42:14;;;;;;;10.15;6.75;;;5.30;99.90;;;;;;1887234;75;21066;-75
2021/12/24 00:44:40;;;;;;;10.70;5.22;;;5.30;99.90;;;;;;1891101;74;21090;-76
2021/12/24 00:47:06;;;;;;;12.03;7.72;;;5.40;99.90;;;;;;1881655;75;21079;-75
2021/12/24 00:49:32;;;;;;;13.18;6.47;;;5.30;99.90;;;;;;1880087;74;21156;-75
2021/12/24 00:52:18;;;;;;;14.28;7.97;;;5.30;99.90;;;;;;1873989;75;21467;-75
2021/12/24 00:57:19;;;;;;;10.03;7.47;;;5.30;99.90;;;;;;1886149;74;21141;-74
2021/12/24 00:59:45;;;;;;;12.03;7.22;;;5.30;99.90;;;;;;1894980;74;21083;-75
2021/12/24 01:02:11;;;;;;;20.32;7.92;;;5.20;99.90;;;;;;1884825;75;21157;-75
2021/12/24 01:04:38;;;;;;;14.40;7.53;;;5.20;99.90;;;;;;1879205;75;21091;-75
2021/12/24 01:07:05;;;;;;;11.45;7.80;;;5.20;99.90;;;;;;1884223;74;21082;-76
2021/12/24 01:09:31;;;;;;;11.30;7.87;;;5.20;99.90;;;;;;1885913;74;21082;-76
2021/12/24 01:11:57;;;;;;;12.40;7.62;;;5.30;99.90;;;;;;1862659;74;21082;-75
2021/12/24 01:14:24;;;;;;;10.88;7.67;;;5.30;99.90;;;;;;1880888;74;21098;-75
2021/12/24 01:17:03;;;;;;;11.45;7.60;;;5.20;99.90;;;;;;1878798;74;21095;-75
2021/12/24 01:19:23;;;;;;;13.08;7.90;;;5.40;99.90;;;;;;1874781;74;21095;-75
2021/12/24 01:24:31;;;;;;;11.45;7.45;;;5.30;99.90;;;;;;1871958;75;21047;-75
2021/12/24 01:27:05;;;;;;;11.40;7.55;;;5.20;99.90;;;;;;1874525;74;21165;-75
2021/12/24 01:37:55;;;;;;;17.80;8.25;;;5.60;99.90;;;;;;1868413;74;21138;-74
2021/12/24 01:42:50;;;;;;;10.58;7.03;;;5.40;99.90;;;;;;1868613;76;21439;-76
2021/12/24 01:45:16;;;;;;;14.43;7.35;;;5.50;99.90;;;;;;1870880;75;21147;-75
2021/12/24 01:47:43;;;;;;;11.20;7.28;;;5.60;99.90;;;;;;1852470;75;21474;-76
2021/12/24 01:50:09;;;;;;;14.13;7.28;;;5.50;99.90;;;;;;1872590;75;21566;-74
2021/12/24 01:52:35;;;;;;;11.53;7.05;;;5.40;99.90;;;;;;1849965;75;21443;-76
2021/12/24 01:55:01;;;;;;;8.93;6.10;;;5.60;99.90;;;;;;1870338;75;21086;-76
2021/12/24 01:57:27;;;;;;;9.38;5.78;;;5.50;99.90;;;;;;1849839;75;21078;-75
2021/12/24 02:00:21;;;;;;;11.78;6.35;;;5.70;99.90;;;;;;2048666;69;22195;-76
2021/12/24 02:02:47;;;;;;;10.98;5.25;;;5.50;99.90;;;;;;2009762;70;21051;-76
2021/12/24 02:05:13;;;;;;;10.55;5.33;;;5.60;99.90;;;;;;1964911;72;21098;-75
2021/12/24 02:07:39;;;;;;;11.68;5.42;;;5.50;99.90;;;;;;1930859;73;21070;-74
2021/12/24 02:10:05;;;;;;;4.50;3.42;;;5.50;99.90;;;;;;1939303;73;21098;-75
2021/12/24 02:12:34;;;;;;;8.25;4.55;;;5.70;99.90;;;;;;1927658;73;21066;-74
2021/12/24 02:15:00;;;;;;;5.65;3.70;;;5.70;99.90;;;;;;1934686;73;21062;-76
2021/12/24 02:17:46;;;;;;;4.55;3.70;;;5.70;99.90;;;;;;2004854;70;21513;-76
2021/12/24 02:30:50;;;;;;;5.25;3.87;;;5.70;99.90;;;;;;1961876;72;21459;-76
2021/12/24 02:33:16;;;;;;;4.28;3.75;;;5.70;99.90;;;;;;2010367;71;21417;-75
2021/12/24 02:35:42;;;;;;;7.33;4.58;;;5.60;99.90;;;;;;2002793;70;21343;-76
2021/12/24 02:38:09;;;;;;;6.80;4.45;;;5.50;99.90;;;;;;2009090;70;21050;-76
2021/12/24 02:40:35;;;;;;;8.30;4.78;;;5.60;99.90;;;;;;2011289;70;21051;-76
2021/12/24 02:43:01;;;;;;;8.65;4.97;;;5.60;99.90;;;;;;2009846;70;21039;-76
2021/12/24 02:45:27;;;;;;;5.40;4.35;;;5.60;99.90;;;;;;2010536;71;21040;-74
2021/12/24 02:48:09;;;;;;;5.58;4.60;;;5.70;99.90;;;;;;2005461;70;21063;-75
2021/12/24 02:55:33;;;;;;;5.67;3.75;;;5.60;99.90;;;;;;1964827;72;21106;-75
2021/12/24 02:57:59;;;;;;;9.10;4.25;;;5.60;99.90;;;;;;1929628;73;21072;-75
2021/12/24 03:00:27;;;;;;;5.60;3.75;;;5.50;99.90;;;;;;2007812;70;21135;-76
2021/12/24 03:02:53;;;;;;;7.37;4.15;;;5.60;99.90;;;;;;2006643;70;21204;-75
2021/12/24 03:05:19;;;;;;;7.37;3.95;;;5.60;99.90;;;;;;2010486;71;21081;-75
2021/12/24 03:07:45;;;;;;;4.83;3.80;;;5.70;99.90;;;;;;2010579;70;21092;-75
2021/12/24 03:10:15;;;;;;;9.93;4.20;;;5.70;99.90;;;;;;2008359;70;21051;-76
2021/12/24 03:12:40;;;;;;;4.60;3.87;;;5.50;99.90;;;;;;1968687;72;21478;-76
2021/12/24 03:15:06;;;;;;;6.45;4.15;;;5.50;99.90;;;;;;2003493;70;21152;-76
2021/12/24 03:17:32;;;;;;;6.28;4.30;;;5.50;99.90;;;;;;2011136;70;21039;-75
2021/12/24 03:20:06;;;;;;;7.33;4.00;;;5.50;99.90;;;;;;1969897;73;21059;-75
2021/12/24 03:22:40;;;;;;;5.20;4.10;;;5.50;99.90;;;;;;2005584;70;21464;-75
2021/12/24 03:24:54;;;;;;;9.05;4.50;;;5.50;99.90;;;;;;2003658;70;21065;-76
2021/12/24 03:27:22;;;;;;;6.70;4.72;;;5.50;99.90;;;;;;2009523;70;21113;-75
2021/12/24 03:29:48;;;;;;;6.87;4.40;;;5.50;99.90;;;;;;2005661;70;21113;-76
2021/12/24 03:32:14;;;;;;;14.03;4.30;;;5.50;99.90;;;;;;2009762;71;21036;-75
2021/12/24 03:34:40;;;;;;;5.37;4.22;;;5.50;99.90;;;;;;2009685;70;21025;-76
2021/12/24 03:37:07;;;;;;;7.25;4.60;;;5.60;99.90;;;;;;2007468;70;21055;-76
2021/12/24 03:39:33;;;;;;;6.00;4.17;;;5.60;99.90;;;;;;1964474;72;21145;-75
2021/12/24 03:41:59;;;;;;;4.53;3.90;;;5.60;99.90;;;;;;2007836;70;21042;-76
2021/12/24 03:44:36;;;;;;;8.15;4.65;;;5.60;99.90;;;;;;2006093;70;21062;-76
2021/12/24 03:47:14;;;;;;;7.22;4.08;;;5.50;99.90;;;;;;1965521;72;21114;-76
2021/12/24 03:49:54;;;;;;;5.87;4.12;;;5.50;99.90;;;;;;2019356;71;21044;-75
2021/12/24 03:52:31;;;;;;;6.42;4.55;;;5.50;99.90;;;;;;2002594;70;21202;-76
2021/12/24 03:54:56;;;;;;;8.30;4.60;;;5.60;99.90;;;;;;1958848;72;21176;-75
2021/12/24 03:57:22;;;;;;;5.60;4.10;;;5.50;99.90;;;;;;2001026;70;21121;-76
2021/12/24 03:59:48;;;;;;;7.72;4.30;;;5.40;99.90;;;;;;2009686;71;21013;-75
2021/12/24 04:02:14;;;;;;;6.70;3.92;;;5.50;99.90;;;;;;2005265;70;21063;-76
2021/12/24 04:04:40;;;;;;;6.72;4.42;;;5.50;99.90;;;;;;2009959;70;21492;-76
2021/12/24 04:07:07;;;;;;;5.62;4.30;;;5.50;99.90;;;;;;2015659;70;21419;-76
2021/12/24 04:09:35;;;;;;;7.85;4.03;;;5.50;99.90;;;;;;2009204;70;21528;-76
2021/12/24 04:12:01;;;;;;;6.15;4.15;;;5.60;99.90;;;;;;2024527;71;21189;-76
2021/12/24 04:14:27;;;;;;;4.53;3.65;;;5.60;99.90;;;;;;2006740;70;21035;-76
2021/12/24 04:16:53;;;;;;;6.83;3.33;;;5.60;99.90;;;;;;1968496;72;21064;-75
2021/12/24 04:27:15;;;;;;;8.18;4.22;;;5.60;99.90;;;;;;2009577;71;21042;-77
2021/12/24 04:29:41;;;;;;;5.67;3.92;;;5.60;99.90;;;;;;2013002;70;21106;-76
2021/12/24 04:32:12;;;;;;;5.50;3.70;;;5.60;99.90;;;;;;2007034;70;21136;-76
2021/12/24 04:34:38;;;;;;;6.80;3.92;;;5.60;99.90;;;;;;2010107;70;21457;-76
2021/12/24 04:50:57;;;;;;;9.25;4.10;;;5.60;99.90;;;;;;2009381;70;21051;-73
2021/12/24 05:01:38;;;;;;;4.28;3.20;;;5.70;99.90;;;;;;2009505;70;21045;-76
2021/12/24 05:03:54;;;;;;;3.45;3.10;;;5.70;99.90;;;;;;2006040;70;21131;-76
2021/12/24 05:08:51;;;;;;;3.27;2.83;;;5.60;99.90;;;;;;2009620;71;21098;-75
2021/12/24 05:11:15;;;;;;;3.95;2.55;;;5.80;99.90;;;;;;2009197;70;21105;-76
2021/12/24 05:13:42;;;;;;;3.30;2.30;;;5.90;99.90;;;;;;2004513;70;21417;-76
2021/12/24 05:16:22;;;;;;;2.80;2.25;;;6.20;99.90;;;;;;1964195;73;21408;-75
2021/12/24 05:21:33;;;;;;;3.52;2.35;;;6.40;99.90;;;;;;2009622;71;21084;-76
2021/12/24 05:23:59;;;;;;;3.20;2.30;;;6.30;99.90;;;;;;2005425;70;21032;-75
2021/12/24 05:26:25;;;;;;;2.60;2.15;;;6.30;99.90;;;;;;2009473;70;21047;-74
2021/12/24 05:28:51;;;;;;;4.00;2.12;;;6.40;99.90;;;;;;2001563;70;21042;-74
2021/12/24 05:31:17;;;;;;;5.45;2.60;;;6.60;99.90;;;;;;1966584;72;21048;-75
2021/12/24 05:33:44;;;;;;;3.00;2.30;;;6.50;99.90;;;;;;1946532;74;21088;-75
2021/12/24 05:36:10;;;;;;;3.55;2.42;;;6.50;99.90;;;;;;1936774;73;21130;-74
2021/12/24 05:38:36;;;;;;;4.17;2.67;;;6.40;99.90;;;;;;2009488;71;21047;-75
2021/12/24 05:41:02;;;;;;;2.08;1.95;;;6.30;99.90;;;;;;2004119;70;21034;-75
2021/12/24 05:43:28;;;;;;;9.28;3.45;;;6.40;99.90;;;;;;1966767;73;21105;-74
2021/12/24 05:45:54;;;;;;;8.03;2.40;;;6.20;99.90;;;;;;2004107;70;21049;-74
2021/12/24 05:48:20;;;;;;;2.80;2.17;;;6.30;99.90;;;;;;1964388;72;21052;-74
2021/12/24 05:50:46;;;;;;;2.80;2.50;;;6.40;99.90;;;;;;2005822;70;21023;-74
2021/12/24 05:53:13;;;;;;;2.72;2.22;;;6.30;99.90;;;;;;2009459;70;21043;-74
2021/12/24 05:58:24;;;;;;;3.52;2.80;;;6.30;99.90;;;;;;1964195;72;21216;-76
2021/12/24 06:00:50;;;;;;;8.05;2.80;;;6.20;99.90;;;;;;1970253;72;21058;-75
2021/12/24 06:03:16;;;;;;;4.47;3.25;;;6.20;99.90;;;;;;2042720;69;21109;-75
2021/12/24 06:05:42;;;;;;;3.77;2.90;;;6.20;99.90;;;;;;2041980;69;21052;-75
2021/12/24 06:08:08;;;;;;;4.72;3.12;;;6.20;99.90;;;;;;2048992;69;21140;-76
2021/12/24 06:10:35;;;;;;;5.08;3.20;;;6.10;99.90;;;;;;2044372;69;21448;-77
2021/12/24 06:13:01;;;;;;;5.28;3.35;;;6.20;99.90;;;;;;2021112;70;21152;-75
2021/12/24 06:15:27;;;;;;;4.75;3.02;;;6.10;99.90;;;;;;2046561;70;21059;-78
2021/12/24 06:17:55;;;;;;;3.00;2.70;;;6.20;99.90;;;;;;2047087;69;21085;-77
2021/12/24 06:20:21;;;;;;;2.95;2.52;;;6.10;99.90;;;;;;2047047;69;21098;-77
2021/12/24 06:22:47;;;;;;;3.92;2.80;;;6.10;99.90;;;;;;2048561;69;21034;-78
2021/12/24 06:25:13;;;;;;;5.25;2.95;;;6.20;99.90;;;;;;2043269;69;21052;-76
2021/12/24 06:27:39;;;;;;;3.08;2.40;;;6.10;99.90;;;;;;2043176;69;21105;-75
2021/12/24 06:30:05;;;;;;;5.62;2.47;;;6.20;99.90;;;;;;2043938;69;21019;-75
2021/12/24 06:32:32;;;;;;;5.28;2.95;;;6.20;99.90;;;;;;2048887;69;21044;-75
2021/12/24 06:34:58;;;;;;;7.70;3.22;;;6.20;99.90;;;;;;2044084;69;21040;-74
2021/12/24 06:37:24;;;;;;;3.02;2.72;;;6.10;99.90;;;;;;2044117;69;21032;-75
2021/12/24 06:39:50;;;;;;;3.15;2.85;;;6.20;99.90;;;;;;2043103;69;21116;-75
2021/12/24 06:42:16;;;;;;;4.60;2.62;;;6.30;99.90;;;;;;2046148;69;21003;-74
2021/12/24 06:44:42;;;;;;;3.33;3.00;;;6.40;99.90;;;;;;2048458;70;21027;-74
2021/12/24 06:47:08;;;;;;;6.15;2.98;;;6.60;99.90;;;;;;2044275;70;21097;-74
2021/12/24 06:49:34;;;;;;;7.42;3.17;;;6.60;99.90;;;;;;2050451;69;21048;-74
2021/12/24 06:52:01;;;;;;;5.20;2.95;;;6.50;99.90;;;;;;2046594;69;21526;-77
2021/12/24 06:54:27;;;;;;;6.92;2.67;;;6.50;99.90;;;;;;2051360;69;21032;-77
2021/12/24 06:56:53;;;;;;;3.37;2.35;;;6.70;99.90;;;;;;2044737;69;21051;-74
2021/12/24 06:59:19;;;;;;;2.47;2.25;;;6.80;99.90;;;;;;2046484;69;21012;-75
2021/12/24 07:01:45;;;;;;;6.30;2.20;;;7.10;99.90;;;;;;2045049;69;21043;-75
2021/12/24 07:04:11;;;;;;;6.30;2.45;;;7.30;99.90;;;;;;2042132;69;21029;-74
2021/12/24 07:06:43;;;;;;;4.90;2.80;;;7.10;99.90;;;;;;2052543;69;21118;-74
2021/12/24 07:09:05;;;;;;;5.08;2.25;;;7.10;99.90;;;;;;2048552;69;21067;-76
2021/12/24 07:11:31;;;;;;;2.60;1.95;;;7.30;99.90;;;;;;2041828;69;21123;-77
2021/12/24 07:13:57;;;;;;;3.92;2.05;;;7.40;99.90;;;;;;2050104;69;21004;-79
2021/12/24 07:16:23;;;;;;;2.10;1.75;;;7.60;99.90;;;;;;2052158;70;21020;-76
2021/12/24 07:18:50;;;;;;;10.08;2.00;;;7.80;99.90;;;;;;2044311;70;21028;-76
2021/12/24 07:21:16;;;;;;;3.60;2.20;;;8.00;99.90;;;;;;2046583;69;21043;-76
2021/12/24 07:23:42;;;;;;;4.62;1.85;;;8.20;99.90;;;;;;2041413;69;21129;-76
2021/12/24 07:26:08;;;;;;;1.90;1.52;;;8.20;99.90;;;;;;2047925;69;21041;-81
2021/12/24 07:28:34;;;;;;;3.95;2.33;;;8.20;99.90;;;;;;2043500;69;21032;-81
2021/12/24 07:31:00;;;;;;;4.95;2.27;;;8.30;99.90;;;;;;2048996;69;21139;-76
2021/12/24 07:33:26;;;;;;;2.72;1.92;;;8.20;99.90;;;;;;2046763;69;21436;-75
2021/12/24 07:35:52;;;;;;;4.22;2.42;;;8.20;99.90;;;;;;2045500;69;21458;-77
2021/12/24 07:38:19;;;;;;;3.58;2.02;;;8.30;99.90;;;;;;2052310;69;21455;-75
2021/12/24 07:40:45;;;;;;;4.67;2.55;;;8.30;99.90;;;;;;2043564;69;21089;-76
2021/12/24 07:43:11;;;;;;;2.70;1.80;;;8.30;99.90;;;;;;2046297;69;21092;-77
2021/12/24 07:45:38;;;;;;;5.03;2.25;;;8.30;99.90;;;;;;2050998;69;21034;-79
2021/12/24 07:48:11;;;;;;;2.62;2.40;;;8.50;99.90;;;;;;2044846;70;21463;-79
2021/12/24 07:53:03;;;;;;;2.98;1.70;;;8.20;99.90;;;;;;2052734;69;20142;-76
2021/12/24 07:55:29;;;;;;;6.70;2.67;;;8.10;99.90;;;;;;2047121;69;21080;-79
2021/12/24 07:57:55;;;;;;;2.80;2.50;;;8.00;99.90;;;;;;2044563;69;21135;-76
2021/12/24 08:00:25;;;;;;;2.90;2.22;;;8.00;99.90;;;;;;2048382;69;21124;-78
2021/12/24 08:02:49;;;;;;;5.03;2.30;;;8.00;99.90;;;;;;2049274;69;21112;-76
2021/12/24 08:05:17;;;;;;;2.22;1.92;;;8.10;99.90;;;;;;2044087;69;21170;-76
2021/12/24 08:07:43;;;;;;;2.70;2.40;;;8.20;99.90;;;;;;2043387;69;21052;-76
2021/12/24 08:10:09;;;;;;;2.77;2.00;;;8.20;99.90;;;;;;2049047;69;21068;-75
2021/12/24 08:12:36;;;;;;;4.25;2.05;;;8.20;99.90;;;;;;2044393;70;21036;-77
2021/12/24 08:15:04;;;;;;;4.33;2.10;;;8.20;99.90;;;;;;2049213;69;21121;-76
2021/12/24 08:17:29;;;;;;;7.62;2.40;;;8.10;99.90;;;;;;2044080;69;21065;-76
2021/12/24 08:19:56;;;;;;;3.05;1.95;;;8.20;99.90;;;;;;2044140;70;21028;-78
2021/12/24 08:22:22;;;;;;;3.58;2.37;;;8.20;99.90;;;;;;2044135;70;21109;-76
2021/12/24 08:24:48;;;;;;;3.15;2.10;;;8.30;99.90;;;;;;2046849;69;21047;-75
2021/12/24 08:27:14;;;;;;;3.37;2.22;;;8.30;99.90;;;;;;2044563;69;21133;-75
2021/12/24 08:29:40;;;;;;;3.12;2.42;;;8.30;99.90;;;;;;2044300;70;21005;-76
2021/12/24 08:32:06;;;;;;;5.25;2.25;;;8.40;99.90;;;;;;2045210;69;21038;-76
2021/12/24 08:34:33;;;;;;;2.72;2.00;;;8.30;99.90;;;;;;2043732;69;21033;-76
2021/12/24 08:36:59;;;;;;;3.92;2.37;;;8.40;99.90;;;;;;2042125;69;21111;-76
2021/12/24 08:39:25;;;;;;;4.35;2.10;;;8.50;99.90;;;;;;2043507;69;21036;-76
2021/12/24 08:41:54;;;;;;;3.08;2.22;;;8.50;99.90;;;;;;2051608;69;21029;-75
2021/12/24 08:44:19;;;;;;;3.55;2.30;;;8.60;99.90;;;;;;2048222;69;21489;-75
2021/12/24 08:46:45;;;;;;;2.95;2.02;;;8.70;99.90;;;;;;2044005;69;21467;-76
2021/12/24 08:49:11;;;;;;;3.95;2.30;;;8.50;99.90;;;;;;2042995;69;21094;-74
2021/12/24 08:51:37;;;;;;;1.77;1.67;;;8.50;99.90;;;;;;2043044;69;21044;-75
2021/12/24 08:54:03;;;;;;;2.40;2.20;;;8.50;99.90;;;;;;2047934;69;21031;-76
2021/12/24 08:56:30;;;;;;;8.58;2.35;;;8.40;99.90;;;;;;2043354;69;21101;-76
2021/12/24 08:58:56;;;;;;;2.33;1.95;;;8.50;99.90;;;;;;2044012;69;21101;-76
2021/12/24 09:01:22;;;;;;;4.00;2.27;;;8.50;99.90;;;;;;2043267;69;21110;-75
2021/12/24 09:03:48;;;;;;;2.85;1.92;;;8.60;99.90;;;;;;2046279;70;21008;-75
2021/12/24 09:06:14;;;;;;;3.50;2.20;;;8.70;99.90;;;;;;2043038;69;21034;-75
2021/12/24 09:08:45;;;;;;;2.02;1.65;;;8.60;99.90;;;;;;2050494;69;21533;-76
2021/12/24 09:11:08;;;;;;;6.05;2.72;;;8.70;99.90;;;;;;2044931;69;21144;-75
2021/12/24 09:13:34;;;;;;;3.75;2.08;;;8.80;99.90;;;;;;2045385;69;21036;-74
2021/12/24 09:16:00;;;;;;;3.77;2.60;;;8.80;99.90;;;;;;2044200;70;21039;-77
2021/12/24 09:18:27;;;;;;;4.83;2.67;;;8.90;99.90;;;;;;2043286;69;21071;-75
2021/12/24 09:20:54;;;;;;;2.50;2.30;;;8.90;99.90;;;;;;2046029;69;21474;-75
2021/12/24 09:23:21;;;;;;;4.72;2.45;;;8.90;99.90;;;;;;2043227;69;21072;-74
2021/12/24 09:25:47;;;;;;;3.05;2.20;;;8.90;99.90;;;;;;2044618;69;21037;-74
2021/12/24 09:28:14;;;;;;;2.33;2.00;;;8.90;99.90;;;;;;2049350;70;21031;-74
2021/12/24 09:30:40;;;;;;;2.30;2.05;;;8.90;99.90;;;;;;2044319;69;21034;-74
2021/12/24 09:33:06;;;;;;;2.75;2.10;;;8.80;99.90;;;;;;2045043;69;21102;-75
2021/12/24 09:35:32;;;;;;;4.05;2.52;;;8.80;99.90;;;;;;2042668;69;21024;-75
2021/12/24 09:38:02;;;;;;;3.05;2.37;;;8.70;99.90;;;;;;2048451;69;21039;-74
2021/12/24 09:40:28;;;;;;;4.33;2.60;;;8.70;99.90;;;;;;2043215;69;21047;-78
2021/12/24 09:42:54;;;;;;;4.50;2.50;;;8.90;99.90;;;;;;2046062;69;21016;-75
2021/12/24 09:45:20;;;;;;;3.10;2.47;;;8.80;99.90;;;;;;2043882;69;21033;-75
2021/12/24 09:47:46;;;;;;;4.33;2.52;;;8.90;99.90;;;;;;2045213;69;21113;-76
2021/12/24 09:50:12;;;;;;;3.35;2.45;;;8.90;99.90;;;;;;2045176;69;21075;-76
2021/12/24 09:52:39;;;;;;;4.42;2.00;;;8.80;99.90;;;;;;2042645;69;21042;-77
2021/12/24 09:55:05;;;;;;;4.70;2.40;;;8.70;99.90;;;;;;2048487;69;21237;-73
2021/12/24 09:57:31;;;;;;;2.65;2.35;;;8.60;99.90;;;;;;2049314;69;21004;-75
2021/12/24 09:59:57;;;;;;;5.53;2.52;;;8.70;99.90;;;;;;2047165;69;21027;-76
2021/12/24 10:02:28;;;;;;;2.45;2.17;;;8.70;99.90;;;;;;2046071;69;20980;-76
2021/12/24 10:04:51;;;;;;;2.45;2.25;;;8.80;99.90;;;;;;2041113;69;21095;-74
2021/12/24 10:07:17;;;;;;;2.47;2.22;;;8.90;99.90;;;;;;2042767;69;21478;-72
2021/12/24 10:09:43;;;;;;;2.40;2.05;;;8.90;99.90;;;;;;2044199;69;21105;-74
2021/12/24 10:12:09;;;;;;;3.98;2.10;;;8.90;99.90;;;;;;2051786;69;21040;-74
2021/12/24 10:14:36;;;;;;;2.77;2.50;;;8.90;99.90;;;;;;2046456;69;21030;-75
2021/12/24 10:17:02;;;;;;;3.05;2.30;;;8.90;99.90;;;;;;2042482;69;21504;-73
2021/12/24 10:19:28;;;;;;;3.52;2.62;;;8.80;99.90;;;;;;2044099;69;21475;-74
2021/12/24 10:21:54;;;;;;;3.37;2.35;;;8.80;99.90;;;;;;2055226;70;21435;-77
2021/12/24 10:24:22;;;;;;;3.55;2.83;;;8.70;99.90;;;;;;2045772;69;21470;-74
2021/12/24 10:26:48;;;;;;;10.23;2.42;;;8.80;99.90;;;;;;2041299;69;21094;-74
2021/12/24 10:29:14;;;;;;;4.37;2.83;;;8.70;99.90;;;;;;2051497;69;21043;-74
2021/12/24 10:31:40;;;;;;;3.70;2.58;;;8.70;99.90;;;;;;2041708;69;21039;-73
2021/12/24 10:34:06;;;;;;;6.95;2.62;;;8.80;99.90;;;;;;2052191;69;21012;-72
2021/12/24 10:36:32;;;;;;;6.45;2.67;;;8.80;99.90;;;;;;2045800;69;21083;-74
2021/12/24 10:38:58;;;;;;;6.17;2.80;;;8.80;99.90;;;;;;2051839;69;21035;-74
2021/12/24 10:41:27;;;;;;;7.00;2.83;;;8.80;99.90;;;;;;2044178;69;21074;-74
2021/12/24 10:43:53;;;;;;;3.33;2.85;;;8.90;99.90;;;;;;2043306;69;21160;-74
2021/12/24 10:46:19;;;;;;;4.47;2.52;;;8.80;99.90;;;;;;2044258;70;21026;-74
2021/12/24 10:48:58;;;;;;;2.80;2.40;;;8.90;99.90;;;;;;2044245;69;21105;-75
2021/12/24 10:51:31;;;;;;;4.55;2.87;;;8.90;99.90;;;;;;2044058;69;21532;-74
2021/12/24 10:53:41;;;;;;;3.15;2.50;;;8.80;99.90;;;;;;2039267;69;21153;-74
2021/12/24 10:56:07;;;;;;;6.60;2.30;;;8.80;99.90;;;;;;2045168;69;21045;-75
2021/12/24 10:58:34;;;;;;;3.35;2.40;;;8.80;99.90;;;;;;2049610;69;21433;-75
2021/12/24 11:01:00;;;;;;;3.47;2.40;;;8.90;99.90;;;;;;2044591;69;21090;-73
2021/12/24 11:03:26;;;;;;;6.42;3.02;;;8.80;99.90;;;;;;2040284;69;21087;-74
2021/12/24 11:05:52;;;;;;;5.80;2.30;;;8.80;99.90;;;;;;2043625;69;21063;-75
2021/12/24 11:08:18;;;;;;;5.50;2.87;;;8.80;99.90;;;;;;2043033;69;21039;-74
2021/12/24 11:10:44;;;;;;;5.12;2.70;;;8.80;99.90;;;;;;2043289;69;21112;-74
2021/12/24 11:13:12;;;;;;;6.87;2.67;;;8.80;99.90;;;;;;2047356;69;21021;-73
2021/12/24 11:15:38;;;;;;;2.80;2.20;;;8.90;99.90;;;;;;2044484;70;21012;-74
2021/12/24 11:18:04;;;;;;;2.70;2.00;;;8.70;99.90;;;;;;2044372;69;21020;-75
2021/12/24 11:20:30;;;;;;;4.83;2.80;;;8.70;99.90;;;;;;2046446;69;21194;-74
2021/12/24 11:22:56;;;;;;;7.67;3.08;;;8.80;99.90;;;;;;2044324;70;21475;-74
2021/12/24 11:25:23;;;;;;;4.33;3.00;;;8.90;99.90;;;;;;2044460;69;21102;-75
2021/12/24 11:27:49;;;;;;;5.03;2.55;;;8.90;99.90;;;;;;2046454;69;21178;-73
2021/12/24 11:30:15;;;;;;;5.00;2.98;;;8.90;99.90;;;;;;2047396;69;21039;-74
2021/12/24 11:32:41;;;;;;;4.25;2.67;;;8.80;99.90;;;;;;2043112;69;21635;-74
2021/12/24 11:35:07;;;;;;;4.08;2.75;;;8.80;99.90;;;;;;2043454;69;21040;-72
2021/12/24 11:37:34;;;;;;;3.77;2.80;;;8.80;99.90;;;;;;2046941;69;21043;-74
2021/12/24 11:40:00;;;;;;;4.10;2.90;;;8.90;99.90;;;;;;2053222;69;21031;-73
2021/12/24 11:42:27;;;;;;;6.62;3.50;;;8.90;99.90;;;;;;2044509;69;21043;-74
2021/12/24 11:44:54;;;;;;;6.42;3.67;;;8.80;99.90;;;;;;2044251;69;21032;-74
2021/12/24 11:47:20;;;;;;;3.75;2.85;;;8.90;99.90;;;;;;2044109;70;21035;-74
2021/12/24 11:49:46;;;;;;;4.05;2.37;;;8.90;99.90;;;;;;2043249;69;21036;-73
2021/12/24 11:52:12;;;;;;;4.65;2.95;;;8.90;99.90;;;;;;2044174;70;21058;-74
2021/12/24 11:54:38;;;;;;;4.90;2.65;;;8.90;99.90;;;;;;2045386;69;21039;-75
2021/12/24 11:57:04;;;;;;;4.67;2.85;;;8.70;99.90;;;;;;2047562;69;21116;-74
2021/12/24 11:59:30;;;;;;;6.65;3.12;;;8.80;99.90;;;;;;2048619;69;21020;-74
2021/12/24 12:01:56;;;;;;;7.50;3.98;;;8.80;99.90;;;;;;2046511;69;21048;-74
2021/12/24 12:04:23;;;;;;;6.92;3.45;;;8.70;99.90;;;;;;2043218;69;21091;-74
2021/12/24 12:06:50;;;;;;;4.75;2.60;;;8.90;99.90;;;;;;2044216;70;21451;-75
2021/12/24 12:09:17;;;;;;;4.10;2.90;;;8.90;99.90;;;;;;2046121;69;21059;-72
2021/12/24 12:11:43;;;;;;;3.67;2.58;;;9.00;99.90;;;;;;2047638;69;21152;-75
2021/12/24 12:14:09;;;;;;;2.83;2.52;;;8.90;99.90;;;;;;2043251;69;21020;-74
2021/12/24 12:16:35;;;;;;;4.67;2.30;;;9.00;99.90;;;;;;2044190;70;21047;-74
2021/12/24 12:19:04;;;;;;;4.00;2.80;;;9.10;99.90;;;;;;2043540;69;21475;-75
2021/12/24 12:21:38;;;;;;;2.37;2.17;;;9.20;99.90;;;;;;2045726;69;21146;-76
2021/12/24 12:26:30;;;;;;;5.28;3.02;;;9.20;99.90;;;;;;2046972;69;21136;-75
2021/12/24 12:28:56;;;;;;;3.17;2.85;;;9.20;99.90;;;;;;2043208;69;21018;-74
2021/12/24 12:31:25;;;;;;;5.42;2.77;;;9.10;99.90;;;;;;2044356;69;21086;-74
2021/12/24 12:33:51;;;;;;;5.00;2.75;;;9.10;99.90;;;;;;2042906;69;21121;-75
2021/12/24 12:36:17;;;;;;;4.22;3.12;;;9.00;99.90;;;;;;2043656;69;21150;-75
2021/12/24 12:38:47;;;;;;;8.28;3.08;;;9.20;99.90;;;;;;2052751;69;21041;-74
2021/12/24 12:41:11;;;;;;;3.40;3.10;;;9.20;99.90;;;;;;2046892;69;21066;-75
2021/12/24 12:43:37;;;;;;;4.50;2.90;;;9.20;99.90;;;;;;2044142;69;21105;-75
2021/12/24 12:46:04;;;;;;;5.20;2.47;;;9.20;99.90;;;;;;2049440;69;21171;-73
2021/12/24 12:48:31;;;;;;;6.60;2.50;;;9.20;99.90;;;;;;2042252;69;21041;-74
2021/12/24 12:50:57;;;;;;;6.42;3.33;;;9.30;99.90;;;;;;2046175;69;21048;-74
2021/12/24 12:53:23;;;;;;;6.30;2.90;;;9.30;99.90;;;;;;2044515;70;21043;-73
2021/12/24 12:55:49;;;;;;;4.90;2.67;;;9.40;99.90;;;;;;2047596;69;21051;-75
2021/12/24 12:58:15;;;;;;;6.83;3.10;;;9.30;99.90;;;;;;2047633;69;21031;-76
2021/12/24 13:00:42;;;;;;;4.83;2.17;;;9.20;99.90;;;;;;2050598;69;21047;-74
2021/12/24 13:03:08;;;;;;;2.65;2.05;;;9.30;99.90;;;;;;2048238;69;21039;-74
2021/12/24 13:05:34;;;;;;;4.45;2.47;;;9.30;99.90;;;;;;2044222;70;21490;-75
2021/12/24 13:08:01;;;;;;;4.17;2.30;;;9.30;99.90;;;;;;2046276;69;21467;-75
2021/12/24 13:10:27;;;;;;;5.40;2.58;;;9.30;99.90;;;;;;2047307;69;21043;-75
2021/12/24 13:12:53;;;;;;;2.90;1.90;;;9.30;99.90;;;;;;2046509;69;21174;-74
2021/12/24 13:15:20;;;;;;;5.47;2.40;;;9.30;99.90;;;;;;2047433;69;21119;-74
2021/12/24 13:17:49;;;;;;;4.45;3.05;;;9.30;99.90;;;;;;2046442;69;21046;-74
2021/12/24 13:20:31;;;;;;;5.87;2.33;;;9.30;99.90;;;;;;2052252;69;21499;-74
2021/12/24 13:22:45;;;;;;;6.60;2.58;;;9.30;99.90;;;;;;2043631;69;21460;-74
2021/12/24 13:25:13;;;;;;;4.80;2.17;;;9.30;99.90;;;;;;2047604;69;21448;-74
2021/12/24 13:27:39;;;;;;;3.22;2.00;;;9.40;99.90;;;;;;2050316;69;21133;-74
2021/12/24 13:30:05;;;;;;;4.20;2.25;;;9.50;99.90;;;;;;2044042;69;21112;-75
2021/12/24 13:32:32;;;;;;;2.40;2.20;;;9.50;99.90;;;;;;2046127;69;21059;-75
2021/12/24 13:34:58;;;;;;;8.80;2.50;;;9.40;99.90;;;;;;2049536;69;21105;-75
2021/12/24 13:37:24;;;;;;;3.60;2.17;;;9.40;99.90;;;;;;2050024;69;21079;-74
2021/12/24 13:39:50;;;;;;;3.02;2.10;;;9.50;99.90;;;;;;2056028;69;21443;-74
2021/12/24 13:42:17;;;;;;;6.05;2.27;;;9.40;99.90;;;;;;2043419;69;21433;-74
2021/12/24 13:44:43;;;;;;;5.08;2.80;;;9.30;99.90;;;;;;2047663;69;21155;-74
2021/12/24 13:47:21;;;;;;;4.50;2.45;;;9.30;99.90;;;;;;2047105;69;21100;-73
2021/12/24 13:55:05;;;;;;;4.37;2.47;;;9.30;99.90;;;;;;2043148;69;21103;-74
2021/12/24 13:57:34;;;;;;;6.22;2.00;;;9.30;99.90;;;;;;2043177;69;21033;-74
2021/12/24 13:59:59;;;;;;;7.12;2.60;;;9.10;99.90;;;;;;2044622;69;21458;-73
2021/12/24 14:02:26;;;;;;;4.55;2.40;;;9.00;99.90;;;;;;2044373;69;21541;-74
2021/12/24 14:04:52;;;;;;;6.75;2.52;;;9.00;99.90;;;;;;2046156;69;21016;-75
2021/12/24 14:07:18;;;;;;;2.60;2.10;;;9.00;99.90;;;;;;2042189;69;21032;-75
2021/12/24 14:09:44;;;;;;;4.12;2.22;;;9.00;99.90;;;;;;2044112;69;21032;-81
2021/12/24 14:12:11;;;;;;;7.05;2.30;;;9.00;99.90;;;;;;2042415;69;21030;-77
2021/12/24 14:14:46;;;;;;;6.53;2.52;;;9.00;99.90;;;;;;2045756;69;21636;-77
2021/12/24 14:22:27;;;;;;;4.12;2.25;;;9.00;99.90;;;;;;2045943;69;21157;-75
2021/12/24 14:24:50;;;;;;;5.30;2.17;;;9.20;99.90;;;;;;2043107;69;21566;-74
2021/12/24 14:27:16;;;;;;;3.37;2.55;;;9.20;99.90;;;;;;2043895;69;21444;-75
2021/12/24 14:29:42;;;;;;;2.92;2.02;;;9.20;99.90;;;;;;2045770;70;21101;-74
2021/12/24 14:32:08;;;;;;;3.37;2.30;;;9.20;99.90;;;;;;2044167;70;21039;-74